createdAt,value
2018-07-21T00:04:37.452Z,20.70
2018-07-21T00:07:06.510Z,20.70
2018-07-21T00:09:35.569Z,20.70
2018-07-21T00:12:04.618Z,20.60
2018-07-21T00:14:33.691Z,20.60
2018-07-21T00:17:02.765Z,20.60
2018-07-21T00:19:31.833Z,20.60
2018-07-21T00:22:00.871Z,20.50
2018-07-21T00:24:29.971Z,20.50
2018-07-21T00:26:59.023Z,20.50
2018-07-21T00:29:28.075Z,20.50
2018-07-21T00:31:57.174Z,20.50
2018-07-21T00:34:26.230Z,20.50
2018-07-21T00:39:23.962Z,20.50
2018-07-21T00:41:53.027Z,20.40
2018-07-21T00:44:22.078Z,20.50
2018-07-21T00:46:51.130Z,20.40
2018-07-21T00:49:20.195Z,20.40
2018-07-21T00:51:49.237Z,20.40
2018-07-21T00:54:18.298Z,20.40
2018-07-21T00:56:47.362Z,20.40
2018-07-21T00:59:16.407Z,20.30
2018-07-21T01:01:45.459Z,20.30
2018-07-21T01:04:14.511Z,20.30
2018-07-21T01:06:43.616Z,20.30
2018-07-21T01:09:12.701Z,20.30
2018-07-21T01:11:41.769Z,20.30
2018-07-21T01:14:10.821Z,20.30
2018-07-21T01:16:39.896Z,20.20
2018-07-21T01:19:08.951Z,20.20
2018-07-21T01:21:37.987Z,20.20
2018-07-21T01:24:07.080Z,20.20
2018-07-21T01:26:36.147Z,20.20
2018-07-21T01:29:05.406Z,20.20
2018-07-21T01:31:34.478Z,20.20
2018-07-21T01:34:03.523Z,20.20
2018-07-21T01:36:32.591Z,20.20
2018-07-21T01:41:30.333Z,20.20
2018-07-21T01:43:59.391Z,20.20
2018-07-21T01:46:28.458Z,20.20
2018-07-21T01:48:57.517Z,20.20
2018-07-21T01:51:26.635Z,20.20
2018-07-21T01:53:55.718Z,20.20
2018-07-21T01:56:24.771Z,20.20
2018-07-21T01:58:53.836Z,20.10
2018-07-21T02:01:22.914Z,20.10
2018-07-21T02:03:52.062Z,20.10
2018-07-21T02:06:21.115Z,20.00
2018-07-21T02:11:18.882Z,19.90
2018-07-21T02:13:47.920Z,19.90
2018-07-21T02:16:16.971Z,19.90
2018-07-21T02:18:46.027Z,19.90
2018-07-21T02:21:15.169Z,19.80
2018-07-21T02:26:12.987Z,19.70
2018-07-21T02:28:42.044Z,19.70
2018-07-21T02:31:11.088Z,19.70
2018-07-21T02:33:40.147Z,19.60
2018-07-21T02:36:09.288Z,19.60
2018-07-21T02:38:38.407Z,19.60
2018-07-21T02:41:07.660Z,19.50
2018-07-21T02:46:05.646Z,19.40
2018-07-21T02:48:34.815Z,19.40
2018-07-21T02:51:04.231Z,19.40
2018-07-21T02:53:33.300Z,19.30
2018-07-21T02:56:02.376Z,19.30
2018-07-21T02:58:31.454Z,19.30
2018-07-21T03:01:00.495Z,19.20
2018-07-21T03:03:29.572Z,19.20
2018-07-21T03:05:58.648Z,19.10
2018-07-21T03:08:27.712Z,19.10
2018-07-21T03:10:56.791Z,19.10
2018-07-21T03:13:25.847Z,19.10
2018-07-21T03:15:54.964Z,19.10
2018-07-21T03:18:24.020Z,19.00
2018-07-21T03:20:53.069Z,19.00
2018-07-21T03:23:22.197Z,18.90
2018-07-21T03:25:51.188Z,18.90
2018-07-21T03:28:20.267Z,18.90
2018-07-21T03:30:49.443Z,18.90
2018-07-21T03:33:18.443Z,18.90
2018-07-21T03:38:16.175Z,18.80
2018-07-21T03:40:45.238Z,18.80
2018-07-21T03:43:14.319Z,18.80
2018-07-21T03:50:40.759Z,18.80
2018-07-21T03:53:09.822Z,18.70
2018-07-21T03:55:38.887Z,18.70
2018-07-21T03:58:07.944Z,18.70
2018-07-21T04:00:37.029Z,18.70
2018-07-21T04:03:06.071Z,18.70
2018-07-21T04:05:35.171Z,18.70
2018-07-21T04:08:04.210Z,18.60
2018-07-21T04:10:33.282Z,18.60
2018-07-21T04:13:02.411Z,18.70
2018-07-21T04:15:31.471Z,18.60
2018-07-21T04:18:00.522Z,18.70
2018-07-21T04:20:29.582Z,18.60
2018-07-21T04:22:58.631Z,18.70
2018-07-21T04:25:27.694Z,18.70
2018-07-21T04:27:56.759Z,18.70
2018-07-21T04:30:25.811Z,18.70
2018-07-21T04:32:54.887Z,18.70
2018-07-21T04:35:23.939Z,18.70
2018-07-21T04:37:53.022Z,18.70
2018-07-21T04:40:22.090Z,18.70
2018-07-21T04:42:51.141Z,18.80
2018-07-21T04:45:20.229Z,18.80
2018-07-21T04:47:49.287Z,18.80
2018-07-21T04:50:18.362Z,18.80
2018-07-21T04:52:47.411Z,18.90
2018-07-21T04:55:16.551Z,18.90
2018-07-21T04:57:45.589Z,19.00
2018-07-21T05:00:14.656Z,19.00
2018-07-21T05:05:12.392Z,19.10
2018-07-21T05:07:41.452Z,19.20
2018-07-21T05:10:10.519Z,19.20
2018-07-21T05:15:08.286Z,19.40
2018-07-21T05:17:37.345Z,19.40
2018-07-21T05:20:06.483Z,19.50
2018-07-21T05:25:04.567Z,19.60
2018-07-21T05:30:02.314Z,19.70
2018-07-21T05:32:31.404Z,19.80
2018-07-21T05:35:00.501Z,19.80
2018-07-21T05:37:29.671Z,19.90
2018-07-21T05:39:58.734Z,20.00
2018-07-21T05:42:27.821Z,20.00
2018-07-21T05:47:25.566Z,20.10
2018-07-21T05:49:54.622Z,20.20
2018-07-21T05:52:23.672Z,20.30
2018-07-21T05:54:52.745Z,20.30
2018-07-21T05:57:21.814Z,20.40
2018-07-21T05:59:50.882Z,20.40
2018-07-21T06:02:19.923Z,20.50
2018-07-21T06:04:48.983Z,20.60
2018-07-21T06:07:18.050Z,20.60
2018-07-21T06:09:47.113Z,20.70
2018-07-21T06:12:16.159Z,20.70
2018-07-21T06:14:45.234Z,20.80
2018-07-21T06:17:14.290Z,20.90
2018-07-21T06:19:43.343Z,20.90
2018-07-21T06:22:12.396Z,21.00
2018-07-21T06:24:41.470Z,21.00
2018-07-21T06:27:10.512Z,21.00
2018-07-21T06:29:39.573Z,21.00
2018-07-21T06:32:08.929Z,21.00
2018-07-21T06:34:37.975Z,21.10
2018-07-21T06:37:07.035Z,21.10
2018-07-21T06:39:36.087Z,21.20
2018-07-21T06:42:05.314Z,21.20
2018-07-21T06:44:34.363Z,21.30
2018-07-21T06:47:03.424Z,21.30
2018-07-21T06:49:32.954Z,21.40
2018-07-21T06:52:01.991Z,21.50
2018-07-21T06:54:31.090Z,21.50
2018-07-21T06:57:00.110Z,21.50
2018-07-21T06:59:29.155Z,21.60
2018-07-21T07:01:58.232Z,21.60
2018-07-21T07:04:27.455Z,21.70
2018-07-21T07:06:57.084Z,21.80
2018-07-21T07:09:26.114Z,21.80
2018-07-21T07:11:55.194Z,21.90
2018-07-21T07:14:24.240Z,21.90
2018-07-21T07:16:53.388Z,22.00
2018-07-21T07:19:22.455Z,22.00
2018-07-21T07:21:51.503Z,22.00
2018-07-21T07:24:20.581Z,22.00
2018-07-21T07:26:49.711Z,22.00
2018-07-21T07:29:18.767Z,22.00
2018-07-21T07:34:16.490Z,22.00
2018-07-21T07:36:45.718Z,22.00
2018-07-21T07:39:14.795Z,22.10
2018-07-21T07:41:43.879Z,22.10
2018-07-21T07:44:12.919Z,22.10
2018-07-21T07:46:41.959Z,22.20
2018-07-21T07:49:11.020Z,22.20
2018-07-21T07:51:40.097Z,22.30
2018-07-21T07:54:09.159Z,22.30
2018-07-21T07:56:38.215Z,22.30
2018-07-21T07:59:07.291Z,22.30
2018-07-21T08:01:36.424Z,22.30
2018-07-21T08:04:05.472Z,22.40
2018-07-21T08:09:04.019Z,22.40
2018-07-21T08:11:33.066Z,22.50
2018-07-21T08:14:02.198Z,22.50
2018-07-21T08:16:31.243Z,22.50
2018-07-21T08:19:00.295Z,22.50
2018-07-21T08:21:29.371Z,22.50
2018-07-21T08:23:58.435Z,22.50
2018-07-21T08:26:27.474Z,22.60
2018-07-21T08:28:56.535Z,22.60
2018-07-21T08:31:25.579Z,22.60
2018-07-21T08:33:54.644Z,22.60
2018-07-21T08:36:23.761Z,22.60
2018-07-21T08:38:52.904Z,22.60
2018-07-21T08:41:21.952Z,22.60
2018-07-21T08:43:51.019Z,22.60
2018-07-21T08:46:20.103Z,22.60
2018-07-21T08:48:49.158Z,22.70
2018-07-21T08:51:18.229Z,22.70
2018-07-21T08:53:47.267Z,22.80
2018-07-21T08:56:16.328Z,22.80
2018-07-21T08:58:45.404Z,22.80
2018-07-21T09:01:14.519Z,22.80
2018-07-21T09:03:43.611Z,22.80
2018-07-21T09:06:12.680Z,22.80
2018-07-21T09:08:41.727Z,22.90
2018-07-21T09:11:10.785Z,23.00
2018-07-21T09:13:40.034Z,23.00
2018-07-21T09:16:09.088Z,23.00
2018-07-21T09:18:38.152Z,23.00
2018-07-21T09:21:07.242Z,23.10
2018-07-21T09:26:05.127Z,23.10
2018-07-21T09:28:34.175Z,23.10
2018-07-21T09:31:03.247Z,23.10
2018-07-21T09:33:32.317Z,23.10
2018-07-21T09:36:01.424Z,23.10
2018-07-21T09:38:30.486Z,23.10
2018-07-21T09:40:59.552Z,23.20
2018-07-21T09:43:28.621Z,23.20
2018-07-21T09:45:57.699Z,23.30
2018-07-21T09:48:26.754Z,23.30
2018-07-21T09:50:55.828Z,23.30
2018-07-21T09:53:24.895Z,23.30
2018-07-21T09:55:54.150Z,23.30
2018-07-21T09:58:23.015Z,23.30
2018-07-21T10:00:57.463Z,23.30
2018-07-21T10:03:26.514Z,23.30
2018-07-21T10:05:55.593Z,23.40
2018-07-21T10:08:24.781Z,23.40
2018-07-21T10:10:53.866Z,23.40
2018-07-21T10:13:22.909Z,23.40
2018-07-21T10:15:51.990Z,23.50
2018-07-21T10:18:21.039Z,23.60
2018-07-21T10:20:50.083Z,23.60
2018-07-21T10:23:19.198Z,23.60
2018-07-21T10:25:53.670Z,23.70
2018-07-21T10:28:28.252Z,23.80
2018-07-21T10:30:57.296Z,23.80
2018-07-21T10:33:26.434Z,23.80
2018-07-21T10:35:55.499Z,23.90
2018-07-21T10:38:24.533Z,24.00
2018-07-21T10:40:53.583Z,24.00
2018-07-21T10:43:22.638Z,24.00
2018-07-21T10:48:20.459Z,24.00
2018-07-21T10:50:49.630Z,24.00
2018-07-21T10:53:18.599Z,24.00
2018-07-21T10:55:47.644Z,24.00
2018-07-21T10:58:16.700Z,24.00
2018-07-21T11:00:45.768Z,24.10
2018-07-21T11:03:14.827Z,24.10
2018-07-21T11:05:43.871Z,24.20
2018-07-21T11:08:12.915Z,24.10
2018-07-21T11:10:42.062Z,24.10
2018-07-21T11:13:11.119Z,24.10
2018-07-21T11:15:40.168Z,24.10
2018-07-21T11:18:09.221Z,24.20
2018-07-21T11:20:38.274Z,24.20
2018-07-21T11:23:07.327Z,24.20
2018-07-21T11:25:36.412Z,24.30
2018-07-21T11:28:05.727Z,24.20
2018-07-21T11:30:34.780Z,24.30
2018-07-21T11:33:03.939Z,24.30
2018-07-21T11:38:01.681Z,24.30
2018-07-21T11:40:30.742Z,24.40
2018-07-21T11:42:59.795Z,24.50
2018-07-21T11:45:28.830Z,24.50
2018-07-21T11:47:57.894Z,24.60
2018-07-21T11:50:26.972Z,24.70
2018-07-21T11:52:56.036Z,24.70
2018-07-21T11:55:25.182Z,24.80
2018-07-21T11:57:54.363Z,24.80
2018-07-21T12:00:23.423Z,24.90
2018-07-21T12:02:52.554Z,24.90
2018-07-21T12:05:21.627Z,25.00
2018-07-21T12:07:50.695Z,25.00
2018-07-21T12:10:19.759Z,25.10
2018-07-21T12:12:48.809Z,25.10
2018-07-21T12:15:17.887Z,25.10
2018-07-21T12:17:46.958Z,25.10
2018-07-21T12:20:16.109Z,25.10
2018-07-21T12:22:45.120Z,25.10
2018-07-21T12:25:14.174Z,25.10
2018-07-21T12:27:43.236Z,25.10
2018-07-21T12:31:15.486Z,25.00
2018-07-21T12:33:44.614Z,25.10
2018-07-21T12:36:13.599Z,25.10
2018-07-21T12:38:42.706Z,25.10
2018-07-21T12:41:11.777Z,25.10
2018-07-21T12:43:40.809Z,25.20
2018-07-21T12:46:09.883Z,25.30
2018-07-21T12:48:39.240Z,25.30
2018-07-21T12:51:08.325Z,25.40
2018-07-21T12:53:37.413Z,25.40
2018-07-21T12:56:06.477Z,25.40
2018-07-21T12:58:35.535Z,25.40
2018-07-21T13:01:04.616Z,25.40
2018-07-21T13:03:33.661Z,25.50
2018-07-21T13:06:02.723Z,25.50
2018-07-21T13:11:00.459Z,25.60
2018-07-21T13:13:29.527Z,25.50
2018-07-21T13:15:58.603Z,25.50
2018-07-21T13:18:27.659Z,25.50
2018-07-21T13:20:57.223Z,25.40
2018-07-21T13:23:26.495Z,25.40
2018-07-21T13:25:55.551Z,25.40
2018-07-21T13:28:24.959Z,25.20
2018-07-21T13:30:54.122Z,25.20
2018-07-21T13:33:23.172Z,25.20
2018-07-21T13:35:52.307Z,25.20
2018-07-21T13:40:50.083Z,25.20
2018-07-21T13:43:19.155Z,25.20
2018-07-21T13:45:48.219Z,25.30
2018-07-21T13:48:17.283Z,25.40
2018-07-21T13:50:46.367Z,25.40
2018-07-21T13:53:15.424Z,25.40
2018-07-21T13:55:44.537Z,25.40
2018-07-21T13:58:13.608Z,25.30
2018-07-21T14:00:42.829Z,25.30
2018-07-21T14:03:11.887Z,25.30
2018-07-21T14:05:40.958Z,25.20
2018-07-21T14:22:36.850Z,25.10
2018-07-21T14:25:05.947Z,25.10
2018-07-21T14:27:34.986Z,25.00
2018-07-21T14:30:04.790Z,25.10
2018-07-21T14:35:02.495Z,25.00
2018-07-21T14:37:31.587Z,25.00
2018-07-21T14:40:00.906Z,25.00
2018-07-21T14:42:29.980Z,25.00
2018-07-21T14:44:59.044Z,25.10
2018-07-21T14:47:28.150Z,25.10
2018-07-21T14:49:57.184Z,25.10
2018-07-21T14:52:26.268Z,25.10
2018-07-21T14:54:55.411Z,25.10
2018-07-21T14:57:25.440Z,25.10
2018-07-21T15:02:23.259Z,25.10
2018-07-21T15:04:52.498Z,25.00
2018-07-21T15:07:21.599Z,25.00
2018-07-21T15:09:50.677Z,25.00
2018-07-21T15:12:19.797Z,25.00
2018-07-21T15:14:48.818Z,25.00
2018-07-21T15:17:17.992Z,25.00
2018-07-21T15:19:47.104Z,24.90
2018-07-21T15:22:16.182Z,24.80
2018-07-21T15:24:45.256Z,24.80
2018-07-21T15:27:14.321Z,24.70
2018-07-21T15:29:43.374Z,24.70
2018-07-21T15:32:12.419Z,24.70
2018-07-21T15:34:41.521Z,24.70
2018-07-21T15:37:10.651Z,24.70
2018-07-21T15:39:39.800Z,24.70
2018-07-21T15:47:06.355Z,24.70
2018-07-21T15:49:35.425Z,24.60
2018-07-21T15:52:04.500Z,24.60
2018-07-21T15:54:33.590Z,24.50
2018-07-21T15:57:02.663Z,24.60
2018-07-21T15:59:31.755Z,24.60
2018-07-21T16:02:00.828Z,24.60
2018-07-21T16:04:29.884Z,24.50
2018-07-21T16:06:58.993Z,24.60
2018-07-21T16:09:28.064Z,24.50
2018-07-21T16:14:25.944Z,24.40
2018-07-21T16:16:55.051Z,24.40
2018-07-21T16:19:24.115Z,24.40
2018-07-21T16:21:53.218Z,24.50
2018-07-21T16:24:22.356Z,24.50
2018-07-21T16:26:51.392Z,24.50
2018-07-21T16:29:20.500Z,24.50
2018-07-21T16:31:49.596Z,24.60
2018-07-21T16:34:18.676Z,24.70
2018-07-21T16:36:47.951Z,24.80
2018-07-21T16:39:17.014Z,24.80
2018-07-21T16:41:46.103Z,24.80
2018-07-21T16:44:15.174Z,24.80
2018-07-21T16:46:44.260Z,24.90
2018-07-21T16:49:13.375Z,25.00
2018-07-21T16:51:42.734Z,25.40
2018-07-21T16:54:11.895Z,26.00
2018-07-21T16:56:41.019Z,26.90
2018-07-21T16:59:10.661Z,28.10
2018-07-21T17:01:39.758Z,29.10
2018-07-21T17:04:08.814Z,30.20
2018-07-21T17:06:37.916Z,31.30
2018-07-21T17:09:08.628Z,32.10
2018-07-21T17:11:37.716Z,32.70
2018-07-21T17:14:07.228Z,33.10
2018-07-21T17:16:36.302Z,33.30
2018-07-21T17:19:05.819Z,33.60
2018-07-21T17:21:34.819Z,33.90
2018-07-21T17:24:03.932Z,34.10
2018-07-21T17:26:32.996Z,34.50
2018-07-21T17:29:02.067Z,34.60
2018-07-21T17:31:31.168Z,34.80
2018-07-21T17:34:00.266Z,34.80
2018-07-21T17:36:29.335Z,34.60
2018-07-21T17:38:58.387Z,34.10
2018-07-21T17:41:27.448Z,33.50
2018-07-21T17:43:56.486Z,32.70
2018-07-21T17:46:25.567Z,31.70
2018-07-21T17:48:54.615Z,30.70
2018-07-21T17:51:23.687Z,29.90
2018-07-21T17:53:52.730Z,29.10
2018-07-21T17:56:21.800Z,28.60
2018-07-21T17:58:51.069Z,28.00
2018-07-21T18:01:20.107Z,27.40
2018-07-21T18:03:49.170Z,26.90
2018-07-21T18:06:18.223Z,26.40
2018-07-21T18:08:47.275Z,26.10
2018-07-21T18:11:16.943Z,25.80
2018-07-21T18:16:14.783Z,25.30
2018-07-21T18:18:43.900Z,25.20
2018-07-21T18:21:12.992Z,25.00
2018-07-21T18:23:42.229Z,24.90
2018-07-21T18:26:11.281Z,24.80
2018-07-21T18:28:40.350Z,24.60
2018-07-21T18:31:09.426Z,24.40
2018-07-21T18:33:38.501Z,24.20
2018-07-21T18:36:07.560Z,24.00
2018-07-21T18:38:36.607Z,23.80
2018-07-21T18:41:05.983Z,23.60
2018-07-21T18:43:35.059Z,23.40
2018-07-21T18:46:04.128Z,23.20
2018-07-21T18:48:33.181Z,23.20
2018-07-21T18:51:02.249Z,23.00
2018-07-21T18:53:31.311Z,23.00
2018-07-21T18:56:00.452Z,22.90
2018-07-21T18:58:29.632Z,22.90
2018-07-21T19:00:58.719Z,22.80
2018-07-21T19:03:27.792Z,22.70
2018-07-21T19:05:56.855Z,22.50
2018-07-21T19:08:30.137Z,22.40
2018-07-21T19:10:59.253Z,22.40
2018-07-21T19:13:28.330Z,22.30
2018-07-21T19:17:02.026Z,22.20
2018-07-21T19:19:36.579Z,22.10
2018-07-21T19:22:05.644Z,22.00
2018-07-21T19:24:34.698Z,21.90
2018-07-21T19:27:09.331Z,21.80
2018-07-21T19:29:38.767Z,21.80
2018-07-21T19:32:13.472Z,21.70
2018-07-21T19:34:42.787Z,21.60
2018-07-21T19:37:17.275Z,21.60
2018-07-21T19:39:46.620Z,21.50
2018-07-21T19:42:15.687Z,21.40
2018-07-21T19:44:45.118Z,21.40
2018-07-21T19:47:14.256Z,21.30
2018-07-21T19:49:43.239Z,21.20
2018-07-21T19:52:12.297Z,21.20
2018-07-21T19:54:41.362Z,21.20
2018-07-21T19:57:10.423Z,21.10
2018-07-21T19:59:39.489Z,21.10
2018-07-21T20:02:08.552Z,21.00
2018-07-21T20:04:37.603Z,21.00
2018-07-21T20:07:06.692Z,20.90
2018-07-21T20:09:35.767Z,20.90
2018-07-21T20:12:04.823Z,20.90
2018-07-21T20:14:33.873Z,20.80
2018-07-21T20:19:31.645Z,20.80
2018-07-21T20:22:00.687Z,20.80
2018-07-21T20:24:29.778Z,20.70
2018-07-21T20:26:58.832Z,20.70
2018-07-21T20:29:27.888Z,20.70
2018-07-21T20:31:57.146Z,20.60
2018-07-21T20:36:54.992Z,20.60
2018-07-21T20:39:24.111Z,20.50
2018-07-21T20:41:53.185Z,20.50
2018-07-21T20:44:22.367Z,20.50
2018-07-21T20:46:51.433Z,20.50
2018-07-21T20:49:20.500Z,20.40
2018-07-21T20:54:18.264Z,20.40
2018-07-21T20:56:47.334Z,20.30
2018-07-21T20:59:16.435Z,20.30
2018-07-21T21:01:45.515Z,20.20
2018-07-21T21:04:14.616Z,20.20
2018-07-21T21:06:56.911Z,20.20
2018-07-21T21:09:25.970Z,20.20
2018-07-21T21:11:55.039Z,20.10
2018-07-21T21:14:24.094Z,20.10
2018-07-21T21:16:53.164Z,20.10
2018-07-21T21:19:22.227Z,20.10
2018-07-21T21:21:51.305Z,20.00
2018-07-21T21:24:20.377Z,20.00
2018-07-21T21:26:49.454Z,19.90
2018-07-21T21:29:18.511Z,19.90
2018-07-21T21:31:47.586Z,19.90
2018-07-21T21:34:16.642Z,19.80
2018-07-21T21:36:45.710Z,19.80
2018-07-21T21:39:14.769Z,19.80
2018-07-21T21:41:43.883Z,19.80
2018-07-21T21:44:12.911Z,19.70
2018-07-21T21:46:41.998Z,19.70
2018-07-21T21:49:11.063Z,19.70
2018-07-21T21:51:40.132Z,19.60
2018-07-21T21:56:37.855Z,19.50
2018-07-21T21:59:06.929Z,19.50
2018-07-21T22:01:35.983Z,19.40
2018-07-21T22:04:05.096Z,19.40
2018-07-21T22:06:34.159Z,19.40
2018-07-21T22:09:03.328Z,19.30
2018-07-21T22:11:32.399Z,19.30
2018-07-21T22:14:01.484Z,19.20
2018-07-21T22:16:30.527Z,19.20
2018-07-21T22:18:59.641Z,19.10
2018-07-21T22:21:28.673Z,19.10
2018-07-21T22:23:57.723Z,19.10
2018-07-21T22:26:26.790Z,19.00
2018-07-21T22:28:55.848Z,19.00
2018-07-21T22:31:24.967Z,19.00
2018-07-21T22:33:54.033Z,19.00
2018-07-21T22:36:23.118Z,18.90
2018-07-21T22:38:52.166Z,18.90
2018-07-21T22:43:49.915Z,18.90
2018-07-21T22:46:18.995Z,18.80
2018-07-21T22:48:48.071Z,18.80
2018-07-21T22:51:17.135Z,18.80
2018-07-21T22:53:46.209Z,18.80
2018-07-21T22:56:15.262Z,18.80
2018-07-21T22:58:44.324Z,18.80
2018-07-21T23:01:13.414Z,18.70
2018-07-21T23:03:42.427Z,18.70
2018-07-21T23:06:11.484Z,18.70
2018-07-21T23:08:40.596Z,18.70
2018-07-21T23:13:38.371Z,18.60
2018-07-21T23:16:07.438Z,18.60
2018-07-21T23:18:36.525Z,18.60
2018-07-21T23:21:05.581Z,18.60
2018-07-21T23:23:34.651Z,18.60
2018-07-21T23:26:03.763Z,18.60
2018-07-21T23:28:32.807Z,18.50
2018-07-21T23:31:01.932Z,18.60
2018-07-21T23:33:30.943Z,18.60
2018-07-21T23:36:00.004Z,18.60
2018-07-21T23:38:29.083Z,18.60
2018-07-21T23:40:58.199Z,18.60
2018-07-21T23:43:27.298Z,18.60
2018-07-21T23:45:56.323Z,18.60
2018-07-21T23:48:25.389Z,18.60
2018-07-21T23:50:54.455Z,18.60
2018-07-21T23:53:23.523Z,18.60
2018-07-21T23:55:52.578Z,18.60
2018-07-21T23:58:21.650Z,18.60
